APG716 RPVK-RPLL
Flight info
| Callsign | APG716 |
|---|---|
| Flight time | 0h 46m |
| Altitude | 24000 |
| Route | MINOR2P MINOR B473 LAIYA LAIYA3R |
| Aircraft | A320/M-SDE3FGHIRWY/LB1 |
Departure
| Time | 2026-05-04 09:03 |
|---|---|
| Airport | Kalibo International Airport (RPVK) |
Arrival
| Time | 2026-05-04 09:49 |
|---|---|
| Airport | Ninoy Aquino International Airport (RPLL) |
| Time | Latitude | Longitude | Altitude | Speed | Heading |
|---|---|---|---|---|---|
| 2026-05-04 08:49 | 11.68507 | 122.38059 | 33 ft | 0 kts | 320° |
| 2026-05-04 08:57 | 11.68501 | 122.38092 | 33 ft | 4 kts | 110° |
| 2026-05-04 09:01 | 11.67314 | 122.36808 | 35 ft | 25 kts | 229° |
| 2026-05-04 09:01 | 11.67225 | 122.36730 | 35 ft | 10 kts | 225° |
| 2026-05-04 09:01 | 11.67204 | 122.36667 | 35 ft | 9 kts | 259° |
| 2026-05-04 09:01 | 11.67195 | 122.36661 | 35 ft | 1 kts | 106° |
| 2026-05-04 09:02 | 11.67210 | 122.36687 | 35 ft | 12 kts | 50° |
| 2026-05-04 09:02 | 11.67441 | 122.36956 | 35 ft | 88 kts | 49° |
| 2026-05-04 09:02 | 11.68007 | 122.37615 | 34 ft | 153 kts | 47° |
| 2026-05-04 09:02 | 11.68763 | 122.38483 | 536 ft | 163 kts | 50° |
| 2026-05-04 09:03 | 11.69482 | 122.39311 | 1320 ft | 158 kts | 49° |
| 2026-05-04 09:03 | 11.70382 | 122.39882 | 1984 ft | 163 kts | 10° |
| 2026-05-04 09:03 | 11.71567 | 122.39712 | 2452 ft | 180 kts | 349° |
| 2026-05-04 09:03 | 11.72828 | 122.39349 | 2912 ft | 196 kts | 348° |
| 2026-05-04 09:04 | 11.74228 | 122.38970 | 3388 ft | 212 kts | 350° |
| 2026-05-04 09:04 | 11.75758 | 122.38637 | 3832 ft | 233 kts | 352° |
| 2026-05-04 09:04 | 11.77396 | 122.38321 | 4341 ft | 250 kts | 352° |
| 2026-05-04 09:04 | 11.79201 | 122.37993 | 4869 ft | 268 kts | 353° |
| 2026-05-04 09:05 | 11.81084 | 122.37663 | 5589 ft | 276 kts | 353° |
| 2026-05-04 09:05 | 11.82996 | 122.37335 | 6447 ft | 279 kts | 353° |
| 2026-05-04 09:05 | 11.84901 | 122.37010 | 7280 ft | 282 kts | 352° |
| 2026-05-04 09:05 | 11.86853 | 122.36681 | 8079 ft | 285 kts | 352° |
| 2026-05-04 09:06 | 11.88823 | 122.36349 | 8859 ft | 288 kts | 352° |
| 2026-05-04 09:07 | 12.03562 | 122.33572 | 13292 ft | 327 kts | 346° |
| 2026-05-04 09:08 | 12.05762 | 122.32910 | 13885 ft | 330 kts | 346° |
| 2026-05-04 09:08 | 12.07977 | 122.32237 | 14471 ft | 333 kts | 346° |
| 2026-05-04 09:08 | 12.10227 | 122.31550 | 15038 ft | 337 kts | 346° |
| 2026-05-04 09:08 | 12.12608 | 122.30823 | 15621 ft | 340 kts | 346° |
| 2026-05-04 09:09 | 12.14881 | 122.30134 | 16180 ft | 343 kts | 346° |
| 2026-05-04 09:09 | 12.17160 | 122.29441 | 16733 ft | 345 kts | 346° |
| 2026-05-04 09:09 | 12.19490 | 122.28733 | 17276 ft | 347 kts | 346° |
| 2026-05-04 09:09 | 12.21810 | 122.28029 | 17798 ft | 349 kts | 346° |
| 2026-05-04 09:10 | 12.24137 | 122.27323 | 18300 ft | 352 kts | 346° |
| 2026-05-04 09:10 | 12.26524 | 122.26598 | 18791 ft | 355 kts | 346° |
| 2026-05-04 09:10 | 12.28901 | 122.25877 | 19266 ft | 357 kts | 345° |
| 2026-05-04 09:10 | 12.31295 | 122.25149 | 19729 ft | 360 kts | 345° |
| 2026-05-04 09:11 | 12.33683 | 122.24422 | 20189 ft | 363 kts | 345° |
| 2026-05-04 09:11 | 12.36081 | 122.23543 | 20643 ft | 367 kts | 338° |
| 2026-05-04 09:11 | 12.38395 | 122.22362 | 21097 ft | 370 kts | 331° |
| 2026-05-04 09:11 | 12.40572 | 122.20943 | 21562 ft | 373 kts | 327° |
| 2026-05-04 09:12 | 12.42699 | 122.19461 | 22002 ft | 375 kts | 327° |
| 2026-05-04 09:12 | 12.44860 | 122.17944 | 22440 ft | 377 kts | 327° |
| 2026-05-04 09:14 | 12.60349 | 122.07140 | 23857 ft | 386 kts | 327° |
| 2026-05-04 09:14 | 12.62580 | 122.05590 | 23860 ft | 386 kts | 327° |
| 2026-05-04 09:14 | 12.64815 | 122.04036 | 23862 ft | 385 kts | 327° |
| 2026-05-04 09:14 | 12.67045 | 122.02483 | 23865 ft | 385 kts | 327° |
| 2026-05-04 09:15 | 12.69272 | 122.00934 | 23866 ft | 385 kts | 327° |
| 2026-05-04 09:15 | 12.71477 | 121.99398 | 23866 ft | 386 kts | 327° |
| 2026-05-04 09:15 | 12.73711 | 121.97844 | 23869 ft | 386 kts | 327° |
| 2026-05-04 09:15 | 12.75937 | 121.96294 | 23869 ft | 386 kts | 327° |
| 2026-05-04 09:17 | 12.93833 | 121.83820 | 23869 ft | 384 kts | 326° |
| 2026-05-04 09:18 | 12.96053 | 121.82270 | 23869 ft | 384 kts | 327° |
| 2026-05-04 09:18 | 12.98269 | 121.80722 | 23869 ft | 385 kts | 327° |
| 2026-05-04 09:18 | 13.00493 | 121.79170 | 23871 ft | 384 kts | 327° |
| 2026-05-04 09:18 | 13.02684 | 121.77640 | 23871 ft | 385 kts | 327° |
| 2026-05-04 09:19 | 13.04901 | 121.76092 | 23871 ft | 385 kts | 327° |
| 2026-05-04 09:19 | 13.07144 | 121.74526 | 23869 ft | 385 kts | 327° |
| 2026-05-04 09:19 | 13.09378 | 121.72966 | 23867 ft | 384 kts | 327° |
| 2026-05-04 09:19 | 13.11621 | 121.71399 | 23863 ft | 385 kts | 327° |
| 2026-05-04 09:20 | 13.13880 | 121.69820 | 23860 ft | 385 kts | 327° |
| 2026-05-04 09:20 | 13.16157 | 121.68228 | 23861 ft | 384 kts | 327° |
| 2026-05-04 09:20 | 13.18363 | 121.66687 | 23862 ft | 384 kts | 326° |
| 2026-05-04 09:20 | 13.20577 | 121.65138 | 23862 ft | 383 kts | 326° |
| 2026-05-04 09:21 | 13.22823 | 121.63567 | 23864 ft | 383 kts | 326° |
| 2026-05-04 09:21 | 13.25034 | 121.62018 | 23863 ft | 383 kts | 326° |
| 2026-05-04 09:21 | 13.27241 | 121.60472 | 23865 ft | 384 kts | 327° |
| 2026-05-04 09:21 | 13.29468 | 121.58914 | 23867 ft | 384 kts | 327° |
| 2026-05-04 09:22 | 13.31693 | 121.57356 | 23866 ft | 384 kts | 326° |
| 2026-05-04 09:22 | 13.33918 | 121.55799 | 23780 ft | 385 kts | 326° |
| 2026-05-04 09:22 | 13.36162 | 121.54225 | 23432 ft | 382 kts | 327° |
| 2026-05-04 09:22 | 13.38379 | 121.52672 | 23068 ft | 380 kts | 326° |
| 2026-05-04 09:23 | 13.40567 | 121.51136 | 22659 ft | 377 kts | 327° |
| 2026-05-04 09:23 | 13.42743 | 121.49612 | 22247 ft | 374 kts | 327° |
| 2026-05-04 09:23 | 13.44893 | 121.48104 | 21862 ft | 370 kts | 327° |
| 2026-05-04 09:23 | 13.47019 | 121.46612 | 21450 ft | 368 kts | 327° |
| 2026-05-04 09:25 | 13.61395 | 121.36378 | 18606 ft | 347 kts | 327° |
| 2026-05-04 09:25 | 13.63409 | 121.34998 | 18248 ft | 350 kts | 329° |
| 2026-05-04 09:26 | 13.65468 | 121.33621 | 18002 ft | 351 kts | 328° |
| 2026-05-04 09:26 | 13.67501 | 121.32247 | 17773 ft | 351 kts | 328° |
| 2026-05-04 09:26 | 13.69556 | 121.30843 | 17536 ft | 349 kts | 328° |
| 2026-05-04 09:26 | 13.71584 | 121.29443 | 17309 ft | 348 kts | 328° |
| 2026-05-04 09:27 | 13.73577 | 121.28060 | 17076 ft | 347 kts | 328° |
| 2026-05-04 09:27 | 13.75582 | 121.26668 | 16849 ft | 345 kts | 327° |
| 2026-05-04 09:27 | 13.77564 | 121.25287 | 16627 ft | 344 kts | 328° |
| 2026-05-04 09:27 | 13.79577 | 121.23885 | 16394 ft | 342 kts | 327° |
| 2026-05-04 09:28 | 13.81537 | 121.22518 | 16159 ft | 341 kts | 328° |
| 2026-05-04 09:28 | 13.83497 | 121.21149 | 15924 ft | 340 kts | 328° |
| 2026-05-04 09:28 | 13.85462 | 121.19775 | 15691 ft | 339 kts | 327° |
| 2026-05-04 09:28 | 13.87392 | 121.18367 | 15464 ft | 338 kts | 324° |
| 2026-05-04 09:29 | 13.89240 | 121.16858 | 15226 ft | 337 kts | 323° |
| 2026-05-04 09:29 | 13.91041 | 121.15344 | 14998 ft | 335 kts | 322° |
| 2026-05-04 09:29 | 13.92858 | 121.13811 | 14751 ft | 334 kts | 322° |
| 2026-05-04 09:29 | 13.94665 | 121.12285 | 14515 ft | 332 kts | 322° |
| 2026-05-04 09:30 | 13.96452 | 121.10769 | 14288 ft | 331 kts | 322° |
| 2026-05-04 09:30 | 13.98226 | 121.09261 | 14033 ft | 331 kts | 322° |
| 2026-05-04 09:30 | 13.99996 | 121.07752 | 13797 ft | 329 kts | 322° |
| 2026-05-04 09:30 | 14.01760 | 121.06242 | 13553 ft | 329 kts | 322° |
| 2026-05-04 09:31 | 14.03525 | 121.04736 | 13318 ft | 327 kts | 322° |
| 2026-05-04 09:31 | 14.05274 | 121.03243 | 13080 ft | 326 kts | 322° |
| 2026-05-04 09:31 | 14.07034 | 121.01748 | 12844 ft | 325 kts | 322° |
| 2026-05-04 09:31 | 14.08796 | 121.00253 | 12614 ft | 323 kts | 322° |
| 2026-05-04 09:32 | 14.10537 | 120.98772 | 12373 ft | 321 kts | 322° |
| 2026-05-04 09:32 | 14.12252 | 120.97304 | 12133 ft | 319 kts | 322° |
| 2026-05-04 09:34 | 14.24373 | 120.87238 | 10451 ft | 297 kts | 335° |
| 2026-05-04 09:34 | 14.26220 | 120.86282 | 10215 ft | 293 kts | 337° |
| 2026-05-04 09:34 | 14.28039 | 120.85366 | 9980 ft | 291 kts | 337° |
| 2026-05-04 09:34 | 14.29870 | 120.84450 | 9737 ft | 290 kts | 338° |
| 2026-05-04 09:35 | 14.31685 | 120.83543 | 9501 ft | 288 kts | 337° |
| 2026-05-04 09:35 | 14.33496 | 120.82636 | 9260 ft | 287 kts | 337° |
| 2026-05-04 09:35 | 14.35304 | 120.81726 | 9027 ft | 285 kts | 337° |
| 2026-05-04 09:35 | 14.37078 | 120.80831 | 8785 ft | 272 kts | 337° |
| 2026-05-04 09:37 | 14.47977 | 120.75661 | 7131 ft | 234 kts | 347° |
| 2026-05-04 09:37 | 14.49545 | 120.75184 | 6900 ft | 233 kts | 347° |
| 2026-05-04 09:38 | 14.51124 | 120.74710 | 6638 ft | 233 kts | 347° |
| 2026-05-04 09:38 | 14.52701 | 120.74240 | 6326 ft | 233 kts | 347° |
| 2026-05-04 09:38 | 14.54278 | 120.73776 | 6016 ft | 233 kts | 347° |
| 2026-05-04 09:38 | 14.55856 | 120.73315 | 5693 ft | 234 kts | 347° |
| 2026-05-04 09:39 | 14.57461 | 120.72846 | 5356 ft | 235 kts | 347° |
| 2026-05-04 09:39 | 14.59060 | 120.72378 | 5036 ft | 237 kts | 347° |
| 2026-05-04 09:39 | 14.60677 | 120.71903 | 4704 ft | 238 kts | 347° |
| 2026-05-04 09:39 | 14.62287 | 120.71426 | 4371 ft | 239 kts | 347° |
| 2026-05-04 09:40 | 14.63920 | 120.71098 | 4022 ft | 235 kts | 7° |
| 2026-05-04 09:40 | 14.65356 | 120.71699 | 3822 ft | 221 kts | 44° |
| 2026-05-04 09:40 | 14.66218 | 120.72966 | 3695 ft | 209 kts | 70° |
| 2026-05-04 09:40 | 14.66592 | 120.74385 | 3576 ft | 202 kts | 76° |
| 2026-05-04 09:41 | 14.66913 | 120.75801 | 3458 ft | 203 kts | 76° |
| 2026-05-04 09:42 | 14.65435 | 120.84915 | 2699 ft | 204 kts | 128° |
| 2026-05-04 09:43 | 14.64483 | 120.86018 | 2697 ft | 204 kts | 128° |
| 2026-05-04 09:43 | 14.63543 | 120.87117 | 2693 ft | 199 kts | 127° |
| 2026-05-04 09:43 | 14.62648 | 120.88166 | 2606 ft | 190 kts | 127° |
| 2026-05-04 09:43 | 14.61787 | 120.89180 | 2481 ft | 186 kts | 127° |
| 2026-05-04 09:44 | 14.60958 | 120.90162 | 2447 ft | 174 kts | 127° |
| 2026-05-04 09:44 | 14.60179 | 120.91079 | 2305 ft | 164 kts | 127° |
| 2026-05-04 09:44 | 14.59459 | 120.91930 | 2114 ft | 151 kts | 127° |
| 2026-05-04 09:46 | 14.55221 | 120.96976 | 932 ft | 127 kts | 121° |
| 2026-05-04 09:46 | 14.54736 | 120.97736 | 752 ft | 128 kts | 119° |
| 2026-05-04 09:46 | 14.54203 | 120.98481 | 573 ft | 128 kts | 129° |
| 2026-05-04 09:47 | 14.53567 | 120.99157 | 403 ft | 128 kts | 130° |
| 2026-05-04 09:47 | 14.52904 | 120.99856 | 243 ft | 126 kts | 136° |
| 2026-05-04 09:49 | 14.51195 | 121.01361 | 82 ft | 7 kts | 171° |
| 2026-05-04 09:49 | 14.51150 | 121.01399 | 82 ft | 9 kts | 135° |
| 2026-05-04 09:49 | 14.51109 | 121.01440 | 82 ft | 6 kts | 135° |
| 2026-05-04 09:51 | 14.51050 | 121.01404 | 82 ft | 0 kts | 231° |